Terminal Aerodrome Forecast
Issued by NWS Charleston, WV

Current Version | Previous Version | Graphics & Text | Print | Product List | Glossary On
Versions: 1 2 3 4 5 6 7 8 9 10 11 12 13 14 15 16 17 18 19 20 21 22 23 24 25 26 27 28 29
000
FTUS41 KRLX 131506 AAA
TAFEKN
TAF AMD
KEKN 131506Z 1315/1412 31005KT 6SM BR BKN008
     FM131700 31004KT P6SM BKN012
     FM131900 VRB03KT P6SM SCT020 BKN250
     FM140300 VRB02KT 5SM -RA OVC025
     FM140600 VRB03KT 2SM -RA OVC008=

USA.gov is the U.S. government's official web portal to all federal, state and local government web resources and services.